createdAt,value
2017-06-22T00:00:34.209Z,0
2017-06-22T00:01:34.205Z,0
2017-06-22T00:02:34.207Z,0
2017-06-22T00:03:34.205Z,0
2017-06-22T00:04:34.158Z,0
2017-06-22T00:05:34.249Z,0
2017-06-22T00:06:34.148Z,0
2017-06-22T00:07:34.230Z,0
2017-06-22T00:08:34.242Z,0
2017-06-22T00:09:34.240Z,0
2017-06-22T00:10:34.163Z,0
2017-06-22T00:11:34.248Z,0
2017-06-22T00:12:34.237Z,0
2017-06-22T00:13:34.164Z,0
2017-06-22T00:14:34.241Z,0
2017-06-22T00:15:34.248Z,0
2017-06-22T00:16:34.254Z,0
2017-06-22T00:17:34.238Z,0
2017-06-22T00:18:34.161Z,0
2017-06-22T00:19:34.167Z,0
2017-06-22T00:20:34.158Z,0
2017-06-22T00:21:34.248Z,0
2017-06-22T00:22:34.232Z,0
2017-06-22T00:23:34.161Z,0
2017-06-22T00:24:34.246Z,0
2017-06-22T00:25:34.250Z,0
2017-06-22T00:26:34.253Z,0
2017-06-22T00:27:34.219Z,0
2017-06-22T00:28:34.173Z,0
2017-06-22T00:29:34.216Z,0
2017-06-22T00:30:34.167Z,0
2017-06-22T00:31:34.173Z,0
2017-06-22T00:32:34.246Z,0
2017-06-22T00:33:34.251Z,0
2017-06-22T00:34:34.249Z,0
2017-06-22T00:35:34.171Z,0
2017-06-22T00:36:34.174Z,0
2017-06-22T00:37:34.267Z,0
2017-06-22T00:38:34.262Z,0
2017-06-22T00:39:34.256Z,0
2017-06-22T00:40:34.255Z,0
2017-06-22T00:41:34.174Z,0
2017-06-22T00:42:34.223Z,0
2017-06-22T00:43:34.242Z,0
2017-06-22T00:44:34.257Z,0
2017-06-22T00:45:34.242Z,0
2017-06-22T00:46:34.181Z,0
2017-06-22T00:47:34.252Z,0
2017-06-22T00:48:34.268Z,0
2017-06-22T00:49:34.256Z,0
2017-06-22T00:50:34.222Z,0
2017-06-22T00:51:34.354Z,0
2017-06-22T00:52:34.184Z,0
2017-06-22T00:53:34.186Z,0
2017-06-22T00:54:34.177Z,0
2017-06-22T00:55:34.250Z,0
2017-06-22T00:56:34.252Z,0
2017-06-22T00:57:34.249Z,0
2017-06-22T00:58:34.249Z,0
2017-06-22T00:59:34.253Z,0
2017-06-22T01:00:34.252Z,0
2017-06-22T01:01:34.252Z,0
2017-06-22T01:02:34.250Z,0
2017-06-22T01:03:34.249Z,0
2017-06-22T01:04:34.254Z,0
2017-06-22T01:05:34.271Z,0
2017-06-22T01:06:34.190Z,0
2017-06-22T01:07:34.206Z,0
2017-06-22T01:08:34.265Z,0
2017-06-22T01:09:34.267Z,0
2017-06-22T01:10:34.280Z,0
2017-06-22T01:11:34.268Z,0
2017-06-22T01:12:34.286Z,0
2017-06-22T01:13:34.259Z,0
2017-06-22T01:14:34.284Z,0
2017-06-22T01:15:34.247Z,0
2017-06-22T01:16:34.282Z,0
2017-06-22T01:17:34.283Z,0
2017-06-22T01:18:34.249Z,0
2017-06-22T01:19:34.267Z,0
2017-06-22T01:20:34.285Z,0
2017-06-22T01:21:34.201Z,0
2017-06-22T01:22:34.250Z,0
2017-06-22T01:23:34.273Z,0
2017-06-22T01:24:34.267Z,0
2017-06-22T01:25:34.252Z,0
2017-06-22T01:26:34.215Z,0
2017-06-22T01:27:34.201Z,0
2017-06-22T01:28:34.258Z,0
2017-06-22T01:29:34.250Z,0
2017-06-22T01:30:34.206Z,0
2017-06-22T01:31:34.277Z,0
2017-06-22T01:32:34.203Z,0
2017-06-22T01:33:34.287Z,0
2017-06-22T01:34:34.252Z,0
2017-06-22T01:35:34.390Z,0
2017-06-22T01:36:34.276Z,0
2017-06-22T01:37:34.204Z,0
2017-06-22T01:38:34.287Z,0
2017-06-22T01:39:34.295Z,0
2017-06-22T01:40:34.206Z,0
2017-06-22T01:41:34.296Z,0
2017-06-22T01:42:34.481Z,0
2017-06-22T01:43:34.223Z,0
2017-06-22T01:44:34.279Z,0
2017-06-22T01:45:34.266Z,0
2017-06-22T01:46:34.276Z,0
2017-06-22T01:47:34.296Z,0
2017-06-22T01:48:34.260Z,0
2017-06-22T01:49:34.214Z,0
2017-06-22T01:50:34.300Z,0
2017-06-22T01:51:34.262Z,0
2017-06-22T01:52:34.259Z,0
2017-06-22T01:53:34.303Z,0
2017-06-22T01:54:34.304Z,0
2017-06-22T01:55:34.283Z,0
2017-06-22T01:56:34.282Z,0
2017-06-22T01:57:34.282Z,0
2017-06-22T01:58:34.213Z,0
2017-06-22T01:59:34.283Z,0
2017-06-22T02:00:34.284Z,0
2017-06-22T02:01:34.284Z,0
2017-06-22T02:02:34.298Z,0
2017-06-22T02:03:34.288Z,0
2017-06-22T02:04:34.300Z,0
2017-06-22T02:05:34.294Z,0
2017-06-22T02:06:34.286Z,0
2017-06-22T02:07:34.286Z,0
2017-06-22T02:08:34.288Z,0
2017-06-22T02:09:34.284Z,0
2017-06-22T02:10:34.292Z,0
2017-06-22T02:11:34.291Z,0
2017-06-22T02:12:34.203Z,0
2017-06-22T02:13:34.289Z,0
2017-06-22T02:14:34.290Z,0
2017-06-22T02:15:34.288Z,0
2017-06-22T02:16:34.291Z,0
2017-06-22T02:17:34.295Z,0
2017-06-22T02:18:34.290Z,0
2017-06-22T02:19:34.292Z,0
2017-06-22T02:20:34.376Z,0
2017-06-22T02:21:34.295Z,0
2017-06-22T02:22:34.296Z,0
2017-06-22T02:23:34.269Z,0
2017-06-22T02:24:34.293Z,0
2017-06-22T02:25:34.280Z,0
2017-06-22T02:26:34.304Z,0
2017-06-22T02:27:34.324Z,0
2017-06-22T02:28:34.311Z,0
2017-06-22T02:29:34.294Z,0
2017-06-22T02:30:34.288Z,0
2017-06-22T02:31:34.288Z,0
2017-06-22T02:32:34.324Z,0
2017-06-22T02:33:34.324Z,0
2017-06-22T02:34:34.243Z,0
2017-06-22T02:35:34.291Z,0
2017-06-22T02:36:34.302Z,0
2017-06-22T02:37:34.346Z,0
2017-06-22T02:38:34.391Z,0
2017-06-22T02:39:34.303Z,0
2017-06-22T02:40:34.317Z,0
2017-06-22T02:41:34.347Z,0
2017-06-22T02:42:34.323Z,0
2017-06-22T02:43:34.331Z,0
2017-06-22T02:44:34.289Z,5
2017-06-22T02:45:34.397Z,5
2017-06-22T02:46:34.296Z,5
2017-06-22T02:47:34.296Z,5
2017-06-22T02:48:34.302Z,5
2017-06-22T02:49:34.296Z,5
2017-06-22T02:50:34.298Z,11
2017-06-22T02:51:34.304Z,11
2017-06-22T02:52:34.301Z,11
2017-06-22T02:53:34.302Z,11
2017-06-22T02:54:34.301Z,11
2017-06-22T02:55:34.243Z,16
2017-06-22T02:56:34.334Z,16
2017-06-22T02:57:34.327Z,16
2017-06-22T02:58:34.303Z,16
2017-06-22T02:59:34.321Z,22
2017-06-22T03:00:34.334Z,22
2017-06-22T03:01:34.339Z,28
2017-06-22T03:02:34.338Z,28
2017-06-22T03:03:34.337Z,28
2017-06-22T03:04:34.298Z,33
2017-06-22T03:05:34.306Z,33
2017-06-22T03:06:34.305Z,39
2017-06-22T03:07:34.308Z,39
2017-06-22T03:08:34.308Z,45
2017-06-22T03:09:34.313Z,45
2017-06-22T03:10:34.312Z,50
2017-06-22T03:11:34.311Z,50
2017-06-22T03:12:34.310Z,56
2017-06-22T03:13:34.309Z,61
2017-06-22T03:14:34.311Z,61
2017-06-22T03:15:34.341Z,67
2017-06-22T03:16:34.341Z,73
2017-06-22T03:17:34.307Z,78
2017-06-22T03:18:34.278Z,78
2017-06-22T03:19:34.268Z,84
2017-06-22T03:20:34.311Z,90
2017-06-22T03:21:34.345Z,95
2017-06-22T03:22:34.326Z,101
2017-06-22T03:23:34.264Z,101
2017-06-22T03:24:34.346Z,106
2017-06-22T03:25:34.349Z,112
2017-06-22T03:26:34.354Z,118
2017-06-22T03:27:34.256Z,123
2017-06-22T03:28:34.300Z,129
2017-06-22T03:29:34.254Z,135
2017-06-22T03:30:34.356Z,140
2017-06-22T03:31:34.254Z,146
2017-06-22T03:32:34.291Z,151
2017-06-22T03:33:34.252Z,157
2017-06-22T03:34:34.252Z,163
2017-06-22T03:35:34.350Z,163
2017-06-22T03:36:34.347Z,168
2017-06-22T03:37:34.353Z,174
2017-06-22T03:38:34.458Z,180
2017-06-22T03:39:34.359Z,185
2017-06-22T03:40:34.349Z,191
2017-06-22T03:41:34.363Z,202
2017-06-22T03:42:34.367Z,202
2017-06-22T03:43:34.336Z,208
2017-06-22T03:44:34.359Z,213
2017-06-22T03:45:34.254Z,219
2017-06-22T03:46:34.256Z,225
2017-06-22T03:47:34.252Z,230
2017-06-22T03:48:34.255Z,236
2017-06-22T03:49:34.340Z,241
2017-06-22T03:50:34.249Z,247
2017-06-22T03:51:34.245Z,264
2017-06-22T03:52:34.222Z,264
2017-06-22T03:53:34.261Z,270
2017-06-22T03:54:34.301Z,275
2017-06-22T03:55:34.222Z,281
2017-06-22T03:56:34.258Z,292
2017-06-22T03:57:34.251Z,298
2017-06-22T03:58:34.232Z,303
2017-06-22T03:59:34.249Z,309
2017-06-22T04:00:34.361Z,315
2017-06-22T04:01:34.222Z,326
2017-06-22T04:02:34.260Z,331
2017-06-22T04:03:34.249Z,337
2017-06-22T04:04:34.364Z,343
2017-06-22T04:05:34.306Z,348
2017-06-22T04:06:34.282Z,360
2017-06-22T04:07:34.277Z,365
2017-06-22T04:08:34.348Z,371
2017-06-22T04:09:34.285Z,376
2017-06-22T04:10:34.371Z,382
2017-06-22T04:11:34.279Z,393
2017-06-22T04:12:34.372Z,393
2017-06-22T04:13:34.370Z,405
2017-06-22T04:14:34.382Z,410
2017-06-22T04:15:34.351Z,410
2017-06-22T04:16:34.356Z,410
2017-06-22T04:17:34.355Z,416
2017-06-22T04:18:34.357Z,421
2017-06-22T04:19:34.357Z,433
2017-06-22T04:20:34.359Z,433
2017-06-22T04:21:34.358Z,438
2017-06-22T04:22:34.383Z,444
2017-06-22T04:23:34.362Z,450
2017-06-22T04:24:34.359Z,455
2017-06-22T04:25:34.363Z,466
2017-06-22T04:26:34.346Z,472
2017-06-22T04:27:34.349Z,478
2017-06-22T04:28:34.351Z,483
2017-06-22T04:29:34.352Z,489
2017-06-22T04:30:34.350Z,495
2017-06-22T04:31:34.355Z,500
2017-06-22T04:32:34.356Z,506
2017-06-22T04:33:34.352Z,511
2017-06-22T04:34:34.354Z,523
2017-06-22T04:35:34.354Z,528
2017-06-22T04:36:34.389Z,540
2017-06-22T04:37:34.385Z,540
2017-06-22T04:38:34.389Z,545
2017-06-22T04:39:34.389Z,551
2017-06-22T04:40:34.393Z,556
2017-06-22T04:41:34.361Z,562
2017-06-22T04:42:34.347Z,568
2017-06-22T04:43:34.391Z,579
2017-06-22T04:44:34.368Z,585
2017-06-22T04:45:34.413Z,585
2017-06-22T04:46:34.379Z,590
2017-06-22T04:47:34.371Z,596
2017-06-22T04:48:34.374Z,601
2017-06-22T04:49:34.374Z,607
2017-06-22T04:50:34.379Z,613
2017-06-22T04:51:34.402Z,618
2017-06-22T04:52:34.377Z,630
2017-06-22T04:53:34.376Z,635
2017-06-22T04:54:34.380Z,641
2017-06-22T04:55:34.394Z,652
2017-06-22T04:56:34.404Z,658
2017-06-22T04:57:34.384Z,669
2017-06-22T04:58:34.313Z,675
2017-06-22T04:59:34.395Z,686
2017-06-22T05:00:34.318Z,691
2017-06-22T05:01:34.321Z,703
2017-06-22T05:02:34.324Z,708
2017-06-22T05:03:34.377Z,714
2017-06-22T05:04:34.386Z,720
2017-06-22T05:05:34.313Z,736
2017-06-22T05:06:34.388Z,736
2017-06-22T05:07:34.383Z,742
2017-06-22T05:08:34.387Z,753
2017-06-22T05:09:34.386Z,765
2017-06-22T05:10:34.385Z,770
2017-06-22T05:11:34.384Z,781
2017-06-22T05:12:34.387Z,793
2017-06-22T05:13:34.385Z,810
2017-06-22T05:14:34.387Z,821
2017-06-22T05:15:34.390Z,826
2017-06-22T05:16:34.304Z,832
2017-06-22T05:17:34.320Z,849
2017-06-22T05:18:34.317Z,855
2017-06-22T05:20:34.311Z,860
2017-06-22T05:21:34.309Z,860
2017-06-22T05:22:34.298Z,866
2017-06-22T05:23:34.304Z,871
2017-06-22T05:24:34.367Z,877
2017-06-22T05:25:34.346Z,877
2017-06-22T05:26:34.337Z,877
2017-06-22T05:27:34.414Z,883
2017-06-22T05:28:34.417Z,883
2017-06-22T05:29:34.422Z,894
2017-06-22T05:30:34.413Z,894
2017-06-22T05:31:34.328Z,900
2017-06-22T05:32:34.334Z,905
2017-06-22T05:33:34.419Z,911
2017-06-22T05:34:34.414Z,922
2017-06-22T05:35:34.402Z,933
2017-06-22T05:36:34.343Z,945
2017-06-22T05:37:34.336Z,961
2017-06-22T05:38:34.378Z,967
2017-06-22T05:39:34.339Z,967
2017-06-22T05:40:34.429Z,967
2017-06-22T05:41:34.441Z,961
2017-06-22T05:42:34.427Z,967
2017-06-22T05:43:34.337Z,978
2017-06-22T05:44:34.430Z,1170
2017-06-22T05:45:34.341Z,1434
2017-06-22T05:46:34.421Z,1355
2017-06-22T05:47:34.426Z,1659
2017-06-22T05:48:34.422Z,2323
2017-06-22T05:49:34.342Z,2655
2017-06-22T05:50:34.359Z,2328
2017-06-22T05:51:34.345Z,2120
2017-06-22T05:52:34.437Z,2053
2017-06-22T05:53:34.387Z,1946
2017-06-22T05:54:34.337Z,1850
2017-06-22T05:55:34.430Z,1890
2017-06-22T05:56:34.409Z,1822
2017-06-22T05:57:34.413Z,1833
2017-06-22T05:58:34.425Z,1856
2017-06-22T05:59:34.413Z,1861
2017-06-22T06:00:34.414Z,1890
2017-06-22T06:01:34.416Z,1906
2017-06-22T06:02:34.415Z,1929
2017-06-22T06:03:34.417Z,1822
2017-06-22T06:04:34.423Z,1929
2017-06-22T06:05:34.417Z,1963
2017-06-22T06:06:34.417Z,1935
2017-06-22T06:07:34.417Z,1991
2017-06-22T06:08:34.415Z,1991
2017-06-22T06:09:34.419Z,1996
2017-06-22T06:10:34.419Z,2025
2017-06-22T06:11:34.418Z,2019
2017-06-22T06:12:34.419Z,2047
2017-06-22T06:13:34.421Z,2058
2017-06-22T06:14:34.415Z,2041
2017-06-22T06:15:34.422Z,2098
2017-06-22T06:16:34.358Z,2126
2017-06-22T06:17:34.400Z,2137
2017-06-22T06:18:34.359Z,2120
2017-06-22T06:19:34.447Z,2143
2017-06-22T06:20:34.438Z,2086
2017-06-22T06:21:34.421Z,2148
2017-06-22T06:22:34.401Z,2171
2017-06-22T06:23:34.448Z,2182
2017-06-22T06:24:34.453Z,2188
2017-06-22T06:25:34.354Z,2182
2017-06-22T06:26:34.420Z,2244
2017-06-22T06:27:34.359Z,2266
2017-06-22T06:28:34.447Z,2311
2017-06-22T06:29:34.435Z,2340
2017-06-22T06:30:34.391Z,2373
2017-06-22T06:31:34.453Z,2396
2017-06-22T06:32:34.426Z,2424
2017-06-22T06:33:34.409Z,2368
2017-06-22T06:34:34.430Z,2356
2017-06-22T06:35:34.459Z,2413
2017-06-22T06:36:34.369Z,2469
2017-06-22T06:37:34.499Z,2435
2017-06-22T06:38:34.463Z,2441
2017-06-22T06:39:34.460Z,2401
2017-06-22T06:40:34.456Z,2418
2017-06-22T06:41:34.457Z,2503
2017-06-22T06:42:34.371Z,2508
2017-06-22T06:43:34.448Z,2542
2017-06-22T06:44:34.462Z,2553
2017-06-22T06:45:34.457Z,2570
2017-06-22T06:46:34.459Z,2587
2017-06-22T06:47:34.459Z,2593
2017-06-22T06:48:34.441Z,2604
2017-06-22T06:49:34.380Z,2655
2017-06-22T06:50:34.470Z,2711
2017-06-22T06:51:34.422Z,2745
2017-06-22T06:52:34.451Z,2756
2017-06-22T06:53:34.380Z,2767
2017-06-22T06:54:34.423Z,2767
2017-06-22T06:55:34.467Z,2373
2017-06-22T06:56:34.468Z,2581
2017-06-22T06:57:34.378Z,2705
2017-06-22T06:58:34.469Z,2705
2017-06-22T06:59:34.473Z,2700
2017-06-22T07:00:34.442Z,2638
2017-06-22T07:01:34.386Z,2739
2017-06-22T07:02:34.479Z,2795
2017-06-22T07:03:34.474Z,2801
2017-06-22T07:04:34.463Z,2902
2017-06-22T07:05:34.444Z,2975
2017-06-22T07:06:34.446Z,3060
2017-06-22T07:07:34.429Z,3116
2017-06-22T07:08:34.503Z,3133
2017-06-22T07:09:34.468Z,3076
2017-06-22T07:10:34.380Z,3206
2017-06-22T07:11:34.479Z,3234
2017-06-22T07:12:34.442Z,2784
2017-06-22T07:13:34.428Z,3268
2017-06-22T07:14:34.478Z,3217
2017-06-22T07:15:34.471Z,3105
2017-06-22T07:16:34.468Z,3262
2017-06-22T07:17:34.426Z,3307
2017-06-22T07:18:34.474Z,3037
2017-06-22T07:19:34.449Z,2818
2017-06-22T07:20:34.448Z,2913
2017-06-22T07:22:34.481Z,2857
2017-06-22T07:23:34.476Z,2863
2017-06-22T07:24:34.392Z,2998
2017-06-22T07:25:34.591Z,3234
2017-06-22T07:26:34.454Z,3285
2017-06-22T07:27:34.489Z,3290
2017-06-22T07:28:34.437Z,3262
2017-06-22T07:29:34.399Z,3256
2017-06-22T07:30:34.481Z,2947
2017-06-22T07:31:34.483Z,3031
2017-06-22T07:32:34.487Z,3318
2017-06-22T07:33:34.404Z,3431
2017-06-22T07:34:34.476Z,3307
2017-06-22T07:35:34.490Z,3133
2017-06-22T07:36:34.472Z,3200
2017-06-22T07:37:34.467Z,3465
2017-06-22T07:38:34.466Z,3493
2017-06-22T07:39:34.465Z,3352
2017-06-22T07:40:34.473Z,3397
2017-06-22T07:41:34.468Z,3448
2017-06-22T07:42:34.469Z,3150
2017-06-22T07:43:34.471Z,3082
2017-06-22T07:44:34.466Z,3397
2017-06-22T07:45:34.469Z,3279
2017-06-22T07:46:34.469Z,3313
2017-06-22T07:47:34.470Z,3352
2017-06-22T07:48:34.470Z,3453
2017-06-22T07:49:34.468Z,3386
2017-06-22T07:50:34.501Z,3285
2017-06-22T07:51:34.472Z,3358
2017-06-22T07:52:34.472Z,3352
2017-06-22T07:53:34.474Z,3487
2017-06-22T07:54:34.474Z,3279
2017-06-22T07:55:34.478Z,3487
2017-06-22T07:56:34.503Z,3453
2017-06-22T07:57:34.497Z,3498
2017-06-22T07:58:34.496Z,3093
2017-06-22T07:59:34.411Z,3397
2017-06-22T08:00:34.413Z,3566
2017-06-22T08:01:34.496Z,3628
2017-06-22T08:02:34.456Z,3600
2017-06-22T08:03:34.415Z,3571
2017-06-22T08:04:34.495Z,3521
2017-06-22T08:05:34.503Z,3487
2017-06-22T08:06:34.480Z,3442
2017-06-22T08:07:34.484Z,3380
2017-06-22T08:08:34.481Z,3386
2017-06-22T08:09:34.486Z,3369
2017-06-22T08:10:34.480Z,3465
2017-06-22T08:11:34.483Z,3538
2017-06-22T08:12:34.484Z,3588
2017-06-22T08:13:34.489Z,3661
2017-06-22T08:14:34.564Z,3780
2017-06-22T08:15:34.487Z,3853
2017-06-22T08:16:34.481Z,3920
2017-06-22T08:17:34.392Z,3915
2017-06-22T08:18:34.398Z,3948
2017-06-22T08:19:34.483Z,3960
2017-06-22T08:20:34.395Z,3898
2017-06-22T08:21:34.486Z,3802
2017-06-22T08:22:34.400Z,3768
2017-06-22T08:23:34.486Z,3695
2017-06-22T08:24:34.487Z,3701
2017-06-22T08:25:34.375Z,3678
2017-06-22T08:26:34.395Z,3656
2017-06-22T08:27:34.482Z,3690
2017-06-22T08:28:34.482Z,3712
2017-06-22T08:29:34.482Z,3847
2017-06-22T08:30:34.479Z,3926
2017-06-22T08:31:34.484Z,3920
2017-06-22T08:32:34.487Z,4055
2017-06-22T08:33:34.479Z,4050
2017-06-22T08:34:34.491Z,4095
2017-06-22T08:35:34.491Z,4151
2017-06-22T08:36:34.490Z,4162
2017-06-22T08:37:34.494Z,4151
2017-06-22T08:38:34.518Z,4156
2017-06-22T08:39:34.515Z,4145
2017-06-22T08:40:34.515Z,4072
2017-06-22T08:41:34.437Z,4078
2017-06-22T08:42:34.515Z,4072
2017-06-22T08:43:34.434Z,4179
2017-06-22T08:44:34.440Z,4168
2017-06-22T08:45:34.523Z,4117
2017-06-22T08:46:34.432Z,4123
2017-06-22T08:47:34.522Z,4213
2017-06-22T08:48:34.508Z,4151
2017-06-22T08:49:34.506Z,4218
2017-06-22T08:50:34.505Z,4269
2017-06-22T08:51:34.505Z,4185
2017-06-22T08:52:34.506Z,4230
2017-06-22T08:53:34.508Z,4252
2017-06-22T08:54:34.510Z,4252
2017-06-22T08:55:34.433Z,4348
2017-06-22T08:56:34.511Z,4342
2017-06-22T08:57:34.391Z,4325
2017-06-22T08:58:34.430Z,4314
2017-06-22T08:59:34.460Z,4449
2017-06-22T09:00:34.417Z,4443
2017-06-22T09:01:34.456Z,4483
2017-06-22T09:02:34.467Z,4528
2017-06-22T09:03:34.454Z,4443
2017-06-22T09:04:34.413Z,4426
2017-06-22T09:05:34.419Z,4449
2017-06-22T09:06:34.519Z,4432
2017-06-22T09:07:34.535Z,4500
2017-06-22T09:08:34.444Z,4567
2017-06-22T09:09:34.457Z,4590
2017-06-22T09:10:34.453Z,4612
2017-06-22T09:11:34.534Z,4651
2017-06-22T09:12:34.533Z,4758
2017-06-22T09:13:34.451Z,4764
2017-06-22T09:14:34.460Z,4753
2017-06-22T09:15:34.496Z,4910
2017-06-22T09:16:34.451Z,5068
2017-06-22T09:17:34.438Z,5152
2017-06-22T09:18:34.521Z,5051
2017-06-22T09:19:34.525Z,4938
2017-06-22T09:20:34.526Z,4815
2017-06-22T09:21:34.525Z,4899
2017-06-22T09:22:34.525Z,4831
2017-06-22T09:23:34.527Z,4798
2017-06-22T09:24:34.531Z,4646
2017-06-22T09:25:34.531Z,4606
2017-06-22T09:26:34.529Z,4713
2017-06-22T09:27:34.555Z,4775
2017-06-22T09:28:34.547Z,4820
2017-06-22T09:29:34.549Z,4831
2017-06-22T09:30:34.547Z,4770
2017-06-22T09:31:34.550Z,4786
2017-06-22T09:32:34.549Z,4696
2017-06-22T09:33:34.652Z,4741
2017-06-22T09:34:34.550Z,4803
2017-06-22T09:35:34.509Z,4803
2017-06-22T09:36:34.471Z,4815
2017-06-22T09:37:34.467Z,4860
2017-06-22T09:38:34.558Z,4905
2017-06-22T09:39:34.471Z,4921
2017-06-22T09:40:34.553Z,5000
2017-06-22T09:41:34.559Z,5011
2017-06-22T09:42:34.469Z,5028
2017-06-22T09:43:34.476Z,5040
2017-06-22T09:45:34.558Z,5101
2017-06-22T09:46:34.475Z,5096
2017-06-22T09:47:34.560Z,5079
2017-06-22T09:48:34.480Z,5079
2017-06-22T09:49:34.473Z,5062
2017-06-22T09:50:34.479Z,5135
2017-06-22T09:51:34.538Z,5197
2017-06-22T09:52:34.558Z,5180
2017-06-22T09:53:34.570Z,5158
2017-06-22T09:54:34.536Z,5085
2017-06-22T09:55:34.576Z,5079
2017-06-22T09:56:34.538Z,5085
2017-06-22T09:57:34.534Z,5090
2017-06-22T09:58:34.550Z,5107
2017-06-22T09:59:34.539Z,5051
2017-06-22T10:00:34.530Z,5056
2017-06-22T10:01:34.533Z,5146
2017-06-22T10:02:34.533Z,5152
2017-06-22T10:03:34.532Z,5180
2017-06-22T10:04:34.537Z,5180
2017-06-22T10:05:34.486Z,5186
2017-06-22T10:06:34.537Z,5220
2017-06-22T10:07:34.488Z,5146
2017-06-22T10:09:34.576Z,5113
2017-06-22T10:10:34.512Z,5124
2017-06-22T10:11:34.570Z,5191
2017-06-22T10:12:34.566Z,5225
2017-06-22T10:13:34.560Z,5248
2017-06-22T10:14:34.480Z,5321
2017-06-22T10:15:34.495Z,5360
2017-06-22T10:16:34.490Z,5310
2017-06-22T10:17:34.543Z,5315
2017-06-22T10:18:34.571Z,5343
2017-06-22T10:19:34.542Z,5310
2017-06-22T10:20:34.544Z,5315
2017-06-22T10:21:34.548Z,5270
2017-06-22T10:22:34.545Z,5287
2017-06-22T10:23:34.548Z,5315
2017-06-22T10:24:34.545Z,5416
2017-06-22T10:25:34.552Z,5343
2017-06-22T10:26:34.548Z,5360
2017-06-22T10:27:34.547Z,5304
2017-06-22T10:28:34.652Z,5281
2017-06-22T10:29:34.549Z,5332
2017-06-22T10:30:34.550Z,5304
2017-06-22T10:31:34.549Z,5360
2017-06-22T10:32:34.553Z,5276
2017-06-22T10:33:34.552Z,5225
2017-06-22T10:34:34.554Z,5231
2017-06-22T10:35:34.557Z,5175
2017-06-22T10:36:34.555Z,5135
2017-06-22T10:37:34.529Z,5197
2017-06-22T10:38:34.538Z,5141
2017-06-22T10:39:34.481Z,5214
2017-06-22T10:40:34.578Z,5203
2017-06-22T10:41:34.546Z,5276
2017-06-22T10:42:34.588Z,5461
2017-06-22T10:43:34.479Z,5501
2017-06-22T10:44:34.534Z,5450
2017-06-22T10:45:34.483Z,5208
2017-06-22T10:46:34.534Z,5242
2017-06-22T10:47:34.537Z,5310
2017-06-22T10:48:34.486Z,5377
2017-06-22T10:49:34.495Z,5146
2017-06-22T10:50:34.577Z,5073
2017-06-22T10:51:34.493Z,5276
2017-06-22T10:52:34.550Z,5276
2017-06-22T10:53:34.538Z,5405
2017-06-22T10:54:34.587Z,5450
2017-06-22T10:55:34.732Z,5461
2017-06-22T10:56:34.545Z,5563
2017-06-22T10:57:34.667Z,5253
2017-06-22T10:58:34.568Z,5394
2017-06-22T10:59:34.567Z,5377
2017-06-22T11:00:34.566Z,5523
2017-06-22T11:01:34.566Z,5596
2017-06-22T11:02:34.565Z,5535
2017-06-22T11:03:34.565Z,5551
2017-06-22T11:04:34.571Z,5186
2017-06-22T11:05:34.577Z,5445
2017-06-22T11:06:34.568Z,5360
2017-06-22T11:07:34.585Z,5608
2017-06-22T11:08:34.582Z,5563
2017-06-22T11:09:34.585Z,5456
2017-06-22T11:10:34.581Z,5338
2017-06-22T11:11:34.593Z,5658
2017-06-22T11:12:34.579Z,5636
2017-06-22T11:13:34.584Z,5602
2017-06-22T11:14:34.583Z,5743
2017-06-22T11:15:34.592Z,5748
2017-06-22T11:16:34.591Z,5782
2017-06-22T11:17:34.611Z,5776
2017-06-22T11:18:34.531Z,5844
2017-06-22T11:19:34.591Z,5889
2017-06-22T11:20:34.613Z,5850
2017-06-22T11:21:34.528Z,5855
2017-06-22T11:22:34.616Z,5793
2017-06-22T11:23:34.577Z,5709
2017-06-22T11:24:34.643Z,5720
2017-06-22T11:25:34.522Z,5799
2017-06-22T11:26:34.552Z,5737
2017-06-22T11:27:34.591Z,5793
2017-06-22T11:28:34.595Z,5754
2017-06-22T11:29:34.608Z,5838
2017-06-22T11:30:34.596Z,5737
2017-06-22T11:31:34.598Z,5782
2017-06-22T11:32:34.595Z,5715
2017-06-22T11:33:34.596Z,5720
2017-06-22T11:34:34.597Z,5760
2017-06-22T11:35:34.512Z,5821
2017-06-22T11:36:34.596Z,5917
2017-06-22T11:37:34.599Z,6001
2017-06-22T11:38:34.602Z,5799
2017-06-22T11:39:34.598Z,5906
2017-06-22T11:40:34.629Z,6013
2017-06-22T11:41:34.601Z,5962
2017-06-22T11:42:34.599Z,6103
2017-06-22T11:43:34.520Z,5973
2017-06-22T11:44:34.600Z,5945
2017-06-22T11:45:34.602Z,5866
2017-06-22T11:46:34.602Z,5518
2017-06-22T11:47:34.606Z,5388
2017-06-22T11:48:34.601Z,2480
2017-06-22T11:49:34.506Z,2469
2017-06-22T11:50:34.491Z,4111
2017-06-22T11:51:34.619Z,2896
2017-06-22T11:52:34.490Z,3015
2017-06-22T11:53:34.523Z,2193
2017-06-22T11:54:34.568Z,2210
2017-06-22T11:55:34.550Z,5416
2017-06-22T11:56:34.571Z,4089
2017-06-22T11:57:34.554Z,5366
2017-06-22T11:58:34.495Z,2463
2017-06-22T11:59:34.610Z,1980
2017-06-22T12:00:34.567Z,2638
2017-06-22T12:01:34.494Z,2857
2017-06-22T12:02:34.627Z,5940
2017-06-22T12:03:34.536Z,5731
2017-06-22T12:04:34.538Z,5923
2017-06-22T12:05:34.519Z,5490
2017-06-22T12:06:34.569Z,5495
2017-06-22T12:07:34.672Z,2469
2017-06-22T12:08:34.554Z,2070
2017-06-22T12:09:34.636Z,1912
2017-06-22T12:10:34.557Z,1783
2017-06-22T12:11:34.628Z,1822
2017-06-22T12:12:34.614Z,1963
2017-06-22T12:13:34.641Z,4483
2017-06-22T12:14:34.636Z,1963
2017-06-22T12:15:34.633Z,1704
2017-06-22T12:16:34.557Z,1569
2017-06-22T12:17:34.647Z,1597
2017-06-22T12:18:34.610Z,1777
2017-06-22T12:19:34.609Z,2143
2017-06-22T12:20:34.610Z,4747
2017-06-22T12:21:34.612Z,2362
2017-06-22T12:22:34.610Z,2171
2017-06-22T12:23:34.612Z,2188
2017-06-22T12:24:34.612Z,2317
2017-06-22T12:25:34.611Z,2272
2017-06-22T12:26:34.611Z,2176
2017-06-22T12:27:34.615Z,2064
2017-06-22T12:28:34.614Z,1980
2017-06-22T12:29:34.616Z,1946
2017-06-22T12:30:34.614Z,1946
2017-06-22T12:31:34.617Z,1985
2017-06-22T12:32:34.617Z,2154
2017-06-22T12:33:34.612Z,2452
2017-06-22T12:34:34.619Z,2643
2017-06-22T12:35:34.617Z,2548
2017-06-22T12:36:34.621Z,4921
2017-06-22T12:37:34.622Z,4033
2017-06-22T12:38:34.635Z,4809
2017-06-22T12:39:34.630Z,1991
2017-06-22T12:40:34.630Z,1546
2017-06-22T12:41:34.635Z,1428
2017-06-22T12:42:34.636Z,1440
2017-06-22T12:43:34.636Z,1535
2017-06-22T12:44:34.559Z,1681
2017-06-22T12:45:34.634Z,1800
2017-06-22T12:46:34.636Z,4140
2017-06-22T12:47:34.639Z,4477
2017-06-22T12:48:34.626Z,3009
2017-06-22T12:49:34.624Z,2401
2017-06-22T12:50:34.625Z,2362
2017-06-22T12:51:34.633Z,2536
2017-06-22T12:52:34.727Z,4320
2017-06-22T12:53:34.677Z,2475
2017-06-22T12:54:34.631Z,2154
2017-06-22T12:55:34.629Z,2047
2017-06-22T12:56:34.628Z,2070
2017-06-22T12:57:34.636Z,2008
2017-06-22T12:58:34.660Z,1861
2017-06-22T12:59:34.659Z,1603
2017-06-22T13:00:34.666Z,1305
2017-06-22T13:02:34.625Z,855
2017-06-22T13:03:34.600Z,714
2017-06-22T13:04:34.671Z,607
2017-06-22T13:05:34.626Z,545
2017-06-22T13:06:34.667Z,489
2017-06-22T13:07:34.585Z,455
2017-06-22T13:08:34.629Z,410
2017-06-22T13:09:34.665Z,421
2017-06-22T13:10:34.664Z,450
2017-06-22T13:11:34.663Z,641
2017-06-22T13:12:34.671Z,866
2017-06-22T13:13:34.672Z,967
2017-06-22T13:14:34.669Z,1080
2017-06-22T13:15:34.676Z,1203
2017-06-22T13:16:34.668Z,1276
2017-06-22T13:17:34.588Z,1366
2017-06-22T13:18:34.641Z,1344
2017-06-22T13:19:34.643Z,1288
2017-06-22T13:20:34.645Z,1254
2017-06-22T13:21:34.647Z,1254
2017-06-22T13:22:34.642Z,1321
2017-06-22T13:23:34.651Z,1423
2017-06-22T13:24:34.648Z,1473
2017-06-22T13:25:34.649Z,1501
2017-06-22T13:26:34.646Z,1479
2017-06-22T13:27:34.648Z,1456
2017-06-22T13:28:34.685Z,1501
2017-06-22T13:29:34.685Z,1558
2017-06-22T13:30:34.681Z,1614
2017-06-22T13:31:34.589Z,1726
2017-06-22T13:32:34.599Z,2041
2017-06-22T13:33:34.682Z,4792
2017-06-22T13:34:34.680Z,5343
2017-06-22T13:35:34.689Z,5636
2017-06-22T13:36:34.668Z,5422
2017-06-22T13:37:34.599Z,5315
2017-06-22T13:38:34.607Z,4477
2017-06-22T13:39:34.642Z,3279
2017-06-22T13:40:34.645Z,2120
2017-06-22T13:41:34.691Z,1597
2017-06-22T13:42:34.689Z,1400
2017-06-22T13:43:34.597Z,1321
2017-06-22T13:44:34.686Z,1321
2017-06-22T13:45:34.693Z,1338
2017-06-22T13:46:34.606Z,1361
2017-06-22T13:47:34.693Z,1372